Time;durP1;ratioP1;P1;durP2;ratioP2;P2;SDS_P1;SDS_P2;PMS_P1;PMS_P2;Temp;Humidity;BMP_temperature;BMP_pressure;BME280_temperature;BME280_humidity;BME280_pressure;Samples;Min_cycle;Max_cycle;Signal;HPM_P1;HPM_P2
2022/03/29 00:01:01;;;;;;;;;;;;;;;15.41;56.48;97684.66;5059950;28;20365;-72
2022/03/29 00:03:28;;;;;;;;;;;;;;;15.44;56.02;97681.34;5042549;28;19924;-72
2022/03/29 00:05:54;;;;;;;;;;;;;;;15.43;56.08;97674.38;5040866;28;20027;-71
2022/03/29 00:08:22;;;;;;;;;;;;;;;15.47;56.06;97673.47;5057239;28;19981;-73
2022/03/29 00:10:48;;;;;;;;;;;;;;;15.45;55.88;97674.84;5058612;28;19961;-71
2022/03/29 00:13:15;;;;;;;;;;;;;;;15.40;55.96;97661.50;5061022;28;19967;-71
2022/03/29 00:15:41;;;;;;;;;;;;;;;15.39;56.03;97666.09;5060483;28;19959;-71
2022/03/29 00:18:07;;;;;;;;;;;;;;;15.35;56.03;97661.63;5057569;28;19932;-72
2022/03/29 00:20:34;;;;;;;;;;;;;;;15.37;56.05;97652.16;5057212;28;19925;-72
2022/03/29 00:23:00;;;;;;;;;;;;;;;15.40;56.05;97653.44;5060132;28;19936;-72
2022/03/29 00:25:28;;;;;;;;;;;;;;;15.35;56.03;97653.56;5060893;28;19925;-72
2022/03/29 00:27:54;;;;;;;;;;;;;;;15.30;56.41;97650.94;5058771;28;19924;-72
2022/03/29 00:30:21;;;;;;;;;;;;;;;15.32;56.27;97644.16;5057269;28;19925;-72
2022/03/29 00:32:47;;;;;;;;;;;;;;;15.36;56.42;97647.06;5058710;28;20519;-73
2022/03/29 00:35:14;;;;;;;;;;;;;;;15.38;56.65;97642.97;5060630;28;20406;-72
2022/03/29 00:37:41;;;;;;;;;;;;;;;15.31;56.31;97633.72;5059328;28;19947;-72
2022/03/29 00:40:09;;;;;;;;;;;;;;;15.26;56.41;97639.19;5057425;28;19988;-72
2022/03/29 00:42:37;;;;;;;;;;;;;;;14.96;57.78;97640.56;5057146;28;20004;-72
2022/03/29 00:45:03;;;;;;;;;;;;;;;15.00;58.17;97637.00;5060326;28;19956;-72
2022/03/29 00:47:30;;;;;;;;;;;;;;;14.99;58.19;97632.72;5060789;28;20316;-72
2022/03/29 00:49:57;;;;;;;;;;;;;;;14.94;58.74;97632.03;5057999;28;19956;-72
2022/03/29 00:52:23;;;;;;;;;;;;;;;14.99;58.64;97627.34;5055660;28;19925;-72
2022/03/29 00:54:51;;;;;;;;;;;;;;;15.09;58.08;97635.22;5040124;28;19955;-72
2022/03/29 00:57:18;;;;;;;;;;;;;;;14.86;59.29;97630.00;5042152;28;19924;-72
2022/03/29 00:59:46;;;;;;;;;;;;;;;14.78;59.81;97619.94;5058870;28;19925;-72
2022/03/29 01:02:13;;;;;;;;;;;;;;;14.46;61.33;97626.94;5056416;28;20016;-72
2022/03/29 01:04:40;;;;;;;;;;;;;;;14.15;63.90;97630.38;5056143;28;19955;-72
2022/03/29 01:07:06;;;;;;;;;;;;;;;14.13;65.13;97622.63;5059589;28;19925;-71
2022/03/29 01:09:34;;;;;;;;;;;;;;;14.37;64.20;97609.09;5059086;28;19952;-71
2022/03/29 01:12:00;;;;;;;;;;;;;;;14.48;63.29;97615.91;5056537;28;19937;-71
2022/03/29 01:14:28;;;;;;;;;;;;;;;14.25;63.41;97606.06;5055896;28;19925;-72
2022/03/29 01:19:41;;;;;;;;;;;;;;;14.15;65.72;97604.31;5041205;28;19933;-72
2022/03/29 01:22:10;;;;;;;;;;;;;;;14.22;64.84;97602.06;5037872;28;19957;-72
2022/03/29 01:24:37;;;;;;;;;;;;;;;14.22;65.39;97595.91;5055427;28;19929;-73
2022/03/29 01:27:05;;;;;;;;;;;;;;;13.96;66.31;97587.44;5058882;28;19964;-72
2022/03/29 01:29:32;;;;;;;;;;;;;;;13.73;69.08;97588.34;5041183;28;19980;-72
2022/03/29 01:31:58;;;;;;;;;;;;;;;13.81;69.01;97577.75;5056310;28;20438;-73
2022/03/29 01:34:26;;;;;;;;;;;;;;;13.90;68.29;97581.34;5037596;28;19988;-72
2022/03/29 01:36:52;;;;;;;;;;;;;;;14.18;67.40;97576.88;5057072;28;19952;-71
2022/03/29 01:39:20;;;;;;;;;;;;;;;14.40;65.69;97573.59;5058819;28;19928;-71
2022/03/29 01:41:47;;;;;;;;;;;;;;;14.52;64.11;97566.66;5057633;28;19932;-72
2022/03/29 01:44:14;;;;;;;;;;;;;;;14.56;63.34;97570.34;5037569;28;19925;-72
2022/03/29 01:46:40;;;;;;;;;;;;;;;14.54;63.33;97571.75;5037563;28;20153;-72
2022/03/29 01:49:07;;;;;;;;;;;;;;;14.35;64.23;97571.00;5058816;28;19992;-72
2022/03/29 01:51:34;;;;;;;;;;;;;;;14.36;64.17;97569.91;5040542;28;19980;-72
2022/03/29 01:54:02;;;;;;;;;;;;;;;14.51;63.15;97567.72;5055650;28;19940;-72
2022/03/29 01:56:31;;;;;;;;;;;;;;;14.64;62.24;97554.63;5037110;28;19925;-72
2022/03/29 01:58:57;;;;;;;;;;;;;;;14.65;61.81;97565.06;5057603;28;20055;-73
2022/03/29 02:01:24;;;;;;;;;;;;;;;14.64;61.65;97560.00;5058255;28;19952;-73
2022/03/29 02:03:50;;;;;;;;;;;;;;;14.65;61.58;97561.59;5056837;28;20116;-73
2022/03/29 02:06:16;;;;;;;;;;;;;;;14.69;61.42;97554.53;5054741;28;20377;-73
2022/03/29 02:08:43;;;;;;;;;;;;;;;14.66;61.13;97550.56;5055445;28;19948;-72
2022/03/29 02:11:09;;;;;;;;;;;;;;;14.68;60.96;97548.34;5058089;28;20024;-72
2022/03/29 02:13:38;;;;;;;;;;;;;;;14.73;60.80;97550.94;5058294;28;19959;-73
2022/03/29 02:16:05;;;;;;;;;;;;;;;14.71;60.52;97552.34;5054775;28;19921;-73
2022/03/29 02:18:31;;;;;;;;;;;;;;;14.72;60.54;97541.28;5054848;28;19929;-73
2022/03/29 02:20:58;;;;;;;;;;;;;;;14.72;60.23;97538.59;5057293;28;20441;-73
2022/03/29 02:23:24;;;;;;;;;;;;;;;14.63;60.29;97540.41;5057867;28;19968;-73
2022/03/29 02:25:50;;;;;;;;;;;;;;;14.63;60.41;97528.84;5038681;28;19925;-72
2022/03/29 02:28:17;;;;;;;;;;;;;;;14.49;60.59;97531.50;5054630;28;19925;-73
2022/03/29 02:30:45;;;;;;;;;;;;;;;14.33;61.30;97531.00;5055128;28;19955;-73
2022/03/29 02:33:11;;;;;;;;;;;;;;;14.35;61.88;97526.13;5058357;28;19940;-73
2022/03/29 02:35:37;;;;;;;;;;;;;;;14.33;62.19;97522.94;5040154;28;20030;-73
2022/03/29 02:38:06;;;;;;;;;;;;;;;14.45;62.02;97515.19;5054571;28;19926;-72
2022/03/29 02:40:32;;;;;;;;;;;;;;;14.34;62.13;97518.34;5054228;28;20441;-72
2022/03/29 02:42:59;;;;;;;;;;;;;;;14.32;62.83;97517.84;5056745;28;19961;-73
2022/03/29 02:45:26;;;;;;;;;;;;;;;14.31;63.11;97514.34;5039702;28;19924;-73
2022/03/29 02:47:54;;;;;;;;;;;;;;;14.34;63.36;97515.66;5055728;28;19924;-73
2022/03/29 02:50:22;;;;;;;;;;;;;;;14.38;63.14;97522.06;5036557;28;19996;-72
2022/03/29 02:52:49;;;;;;;;;;;;;;;14.17;64.34;97502.78;5037650;28;19981;-72
2022/03/29 02:55:15;;;;;;;;;;;;;;;14.01;65.35;97514.88;5057761;28;19980;-72
2022/03/29 02:57:42;;;;;;;;;;;;;;;13.59;67.72;97502.41;5057185;28;20019;-72
2022/03/29 03:00:10;;;;;;;;;;;;;;;13.19;70.83;97516.41;5053891;28;20578;-72
2022/03/29 03:02:37;;;;;;;;;;;;;;;13.43;71.08;97511.78;5054105;28;19929;-73
2022/03/29 03:05:05;;;;;;;;;;;;;;;13.73;69.32;97511.31;5057533;28;19924;-72
2022/03/29 03:07:31;;;;;;;;;;;;;;;13.92;67.35;97503.22;5057732;28;19939;-72
2022/03/29 03:09:58;;;;;;;;;;;;;;;14.06;66.19;97507.53;5054629;28;19964;-71
2022/03/29 03:12:24;;;;;;;;;;;;;;;13.81;67.03;97499.91;5053564;28;20023;-71
2022/03/29 03:14:50;;;;;;;;;;;;;;;13.68;68.22;97497.97;5037300;28;19960;-72
2022/03/29 03:17:17;;;;;;;;;;;;;;;13.81;68.05;97496.41;5039390;28;19924;-72
2022/03/29 03:19:44;;;;;;;;;;;;;;;13.76;67.65;97499.19;5056839;28;19925;-72
2022/03/29 03:22:11;;;;;;;;;;;;;;;13.80;67.84;97495.63;5036315;28;19959;-72
2022/03/29 03:24:38;;;;;;;;;;;;;;;13.78;67.32;97492.44;5053927;28;20273;-72
2022/03/29 03:27:06;;;;;;;;;;;;;;;13.84;67.04;97490.47;5035767;28;19979;-72
2022/03/29 03:29:33;;;;;;;;;;;;;;;13.97;66.06;97492.41;5053555;28;19925;-72
2022/03/29 03:32:00;;;;;;;;;;;;;;;13.90;65.58;97495.44;5056179;28;19968;-72
2022/03/29 03:34:26;;;;;;;;;;;;;;;13.96;65.20;97488.91;5057110;28;19931;-72
2022/03/29 03:36:53;;;;;;;;;;;;;;;13.85;65.06;97502.78;5054734;28;19924;-71
2022/03/29 03:39:21;;;;;;;;;;;;;;;13.92;65.37;97487.91;5053299;28;19925;-71
2022/03/29 03:41:48;;;;;;;;;;;;;;;13.94;65.21;97487.63;5054131;28;19932;-71
2022/03/29 03:44:14;;;;;;;;;;;;;;;13.93;64.86;97483.31;5035381;28;20415;-71
2022/03/29 03:46:40;;;;;;;;;;;;;;;13.88;65.29;97486.91;5053255;28;19952;-72
2022/03/29 03:49:07;;;;;;;;;;;;;;;13.89;65.42;97488.50;5038799;28;19967;-71
2022/03/29 03:51:34;;;;;;;;;;;;;;;13.81;65.32;97483.78;5056375;28;20339;-71
2022/03/29 03:54:00;;;;;;;;;;;;;;;13.85;66.08;97482.13;5053269;28;19956;-71
2022/03/29 03:56:28;;;;;;;;;;;;;;;13.84;65.50;97475.16;5052796;28;19925;-71
2022/03/29 03:58:54;;;;;;;;;;;;;;;13.86;65.55;97478.38;5054481;28;19925;-71
2022/03/29 04:01:21;;;;;;;;;;;;;;;13.80;66.04;97474.13;5055964;28;19940;-71
2022/03/29 04:03:48;;;;;;;;;;;;;;;13.29;68.04;97476.03;5053764;28;19936;-71
2022/03/29 04:06:14;;;;;;;;;;;;;;;13.13;72.02;97471.97;5052565;28;19925;-71
2022/03/29 04:08:40;;;;;;;;;;;;;;;12.39;74.82;97468.84;5052641;28;19992;-72
2022/03/29 04:11:07;;;;;;;;;;;;;;;12.77;76.41;97467.06;5056055;28;19993;-72
2022/03/29 04:13:36;;;;;;;;;;;;;;;12.49;78.20;97464.47;5055840;28;19925;-71
2022/03/29 04:16:02;;;;;;;;;;;;;;;12.69;75.45;97461.56;5035496;28;19929;-71
2022/03/29 04:18:28;;;;;;;;;;;;;;;12.37;79.31;97454.16;5053372;28;19952;-71
2022/03/29 04:20:55;;;;;;;;;;;;;;;12.62;77.39;97459.22;5055379;28;19921;-71
2022/03/29 04:23:21;;;;;;;;;;;;;;;12.69;76.05;97464.25;5056752;28;19947;-71
2022/03/29 04:25:48;;;;;;;;;;;;;;;12.64;77.09;97462.41;5055563;28;19982;-70
2022/03/29 04:28:14;;;;;;;;;;;;;;;12.72;75.86;97463.66;5055336;28;19943;-72
2022/03/29 04:30:42;;;;;;;;;;;;;;;12.80;75.69;97461.13;5056757;28;19925;-71
2022/03/29 04:33:08;;;;;;;;;;;;;;;13.00;73.95;97460.84;5059902;28;19929;-70
2022/03/29 04:35:35;;;;;;;;;;;;;;;13.03;74.21;97456.03;5059375;28;20038;-70
2022/03/29 04:38:02;;;;;;;;;;;;;;;13.10;73.42;97457.25;5056415;28;19931;-71
2022/03/29 04:40:28;;;;;;;;;;;;;;;12.97;72.40;97464.13;5055870;28;19957;-70
2022/03/29 04:42:54;;;;;;;;;;;;;;;13.23;71.80;97453.06;5057834;28;20012;-70
2022/03/29 04:45:21;;;;;;;;;;;;;;;13.30;71.14;97458.88;5058851;28;19925;-71
2022/03/29 04:47:49;;;;;;;;;;;;;;;13.28;71.34;97453.78;5057832;28;20357;-71
2022/03/29 04:50:17;;;;;;;;;;;;;;;13.08;71.94;97453.25;5055443;28;19925;-70
2022/03/29 04:52:46;;;;;;;;;;;;;;;12.76;75.10;97454.75;5056042;28;19956;-71
2022/03/29 04:55:13;;;;;;;;;;;;;;;12.90;74.57;97454.84;5059769;28;19935;-70
2022/03/29 04:57:41;;;;;;;;;;;;;;;12.97;73.67;97445.34;5059659;28;19925;-72
2022/03/29 05:00:08;;;;;;;;;;;;;;;12.97;73.82;97456.06;5046602;28;19925;-71
2022/03/29 05:02:35;;;;;;;;;;;;;;;12.97;72.92;97450.72;5047884;28;19925;-72
2022/03/29 05:05:03;;;;;;;;;;;;;;;13.02;73.18;97446.38;5047588;28;19945;-72
2022/03/29 05:07:30;;;;;;;;;;;;;;;12.99;73.91;97448.56;5047188;28;19989;-71
2022/03/29 05:09:56;;;;;;;;;;;;;;;12.96;73.37;97446.44;5046907;28;19931;-72
2022/03/29 05:12:23;;;;;;;;;;;;;;;12.81;74.89;97433.22;5046972;28;19943;-72
2022/03/29 05:14:50;;;;;;;;;;;;;;;12.15;78.50;97441.28;5039050;28;19925;-72
2022/03/29 05:17:16;;;;;;;;;;;;;;;12.14;80.88;97438.88;5058694;28;19925;-71
2022/03/29 05:19:43;;;;;;;;;;;;;;;12.36;79.71;97439.16;5058102;28;19992;-72
2022/03/29 05:22:10;;;;;;;;;;;;;;;12.46;78.44;97439.06;5054989;28;20012;-71
2022/03/29 05:24:37;;;;;;;;;;;;;;;12.82;76.41;97434.84;5044755;28;20282;-71
2022/03/29 05:27:03;;;;;;;;;;;;;;;12.84;76.15;97451.41;5055422;28;19956;-72
2022/03/29 05:29:30;;;;;;;;;;;;;;;12.72;76.44;97444.91;5055199;28;19957;-71
2022/03/29 05:31:57;;;;;;;;;;;;;;;12.73;76.78;97444.59;5057317;28;19979;-71
2022/03/29 05:34:23;;;;;;;;;;;;;;;12.49;78.11;97443.84;5058338;28;19928;-72
2022/03/29 05:36:50;;;;;;;;;;;;;;;11.95;82.00;97438.00;5057085;28;19921;-72
2022/03/29 05:39:18;;;;;;;;;;;;;;;11.37;86.74;97436.09;5055104;28;19929;-71
2022/03/29 05:41:45;;;;;;;;;;;;;;;10.91;89.94;97455.34;5037654;28;19992;-71
2022/03/29 05:44:11;;;;;;;;;;;;;;;10.80;91.77;97444.72;5055031;28;19948;-71
2022/03/29 05:49:21;;;;;;;;;;;;;;;10.23;96.58;97449.78;5036670;28;19925;-71
2022/03/29 05:51:49;;;;;;;;;;;;;;;10.07;97.70;97440.19;5055639;28;19947;-72
2022/03/29 05:54:17;;;;;;;;;;;;;;;9.92;99.24;97443.69;5057813;28;19924;-71
2022/03/29 05:56:44;;;;;;;;;;;;;;;10.06;100.00;97449.25;5057147;28;19951;-71
2022/03/29 05:59:11;;;;;;;;;;;;;;;10.38;95.97;97440.91;5054076;28;19988;-71
2022/03/29 06:01:38;;;;;;;;;;;;;;;11.16;92.27;97436.50;5054346;28;19980;-71
2022/03/29 06:04:06;;;;;;;;;;;;;;;10.84;92.18;97445.78;5057918;28;19967;-71
2022/03/29 06:06:33;;;;;;;;;;;;;;;10.54;94.19;97450.47;5057947;28;19929;-71
2022/03/29 06:09:00;;;;;;;;;;;;;;;10.86;93.92;97448.19;5054847;28;19998;-71
2022/03/29 06:11:26;;;;;;;;;;;;;;;11.41;89.21;97444.34;5036151;28;19995;-71
2022/03/29 06:13:54;;;;;;;;;;;;;;;10.76;92.69;97446.38;5054800;28;20327;-71
2022/03/29 06:16:20;;;;;;;;;;;;;;;10.51;93.86;97446.47;5054010;28;19952;-71
2022/03/29 06:18:47;;;;;;;;;;;;;;;9.92;98.18;97446.34;5054945;28;19936;-70
2022/03/29 06:21:13;;;;;;;;;;;;;;;10.18;98.99;97452.47;5057221;28;19929;-70
2022/03/29 06:23:40;;;;;;;;;;;;;;;10.56;96.80;97454.47;5057084;28;19955;-70
2022/03/29 06:26:06;;;;;;;;;;;;;;;11.21;91.05;97450.63;5044031;28;19925;-71
2022/03/29 06:28:32;;;;;;;;;;;;;;;11.59;88.63;97446.34;5027738;28;19925;-71
2022/03/29 06:31:00;;;;;;;;;;;;;;;11.88;85.51;97455.19;5045416;28;19992;-71
2022/03/29 06:33:27;;;;;;;;;;;;;;;12.03;84.16;97456.13;5046005;28;19929;-71
2022/03/29 06:35:53;;;;;;;;;;;;;;;11.93;84.12;97450.88;5045650;28;19929;-71
2022/03/29 06:38:21;;;;;;;;;;;;;;;11.81;85.26;97452.06;5045267;28;20016;-71
2022/03/29 06:40:48;;;;;;;;;;;;;;;11.65;86.05;97452.44;5045233;28;19944;-71
2022/03/29 06:43:14;;;;;;;;;;;;;;;12.13;83.75;97445.34;5039345;28;19990;-71
2022/03/29 06:45:41;;;;;;;;;;;;;;;12.39;81.83;97444.75;5056752;28;20333;-71
2022/03/29 06:48:09;;;;;;;;;;;;;;;12.00;82.82;97446.00;5053373;28;20024;-71
2022/03/29 06:50:35;;;;;;;;;;;;;;;11.66;85.25;97454.84;5052628;28;19975;-71
2022/03/29 06:53:03;;;;;;;;;;;;;;;11.34;88.38;97455.34;5056593;28;20389;-72
2022/03/29 06:55:29;;;;;;;;;;;;;;;11.28;88.91;97450.31;5056657;28;20232;-70
2022/03/29 06:57:56;;;;;;;;;;;;;;;11.46;88.17;97440.81;5054894;28;19988;-70
2022/03/29 07:00:22;;;;;;;;;;;;;;;11.57;87.02;97443.16;5053230;28;19925;-70
2022/03/29 07:02:49;;;;;;;;;;;;;;;11.77;85.37;97448.34;5054180;28;20472;-71
2022/03/29 07:05:19;;;;;;;;;;;;;;;11.36;85.01;97441.69;5039326;28;19925;-72
2022/03/29 07:07:45;;;;;;;;;;;;;;;11.15;88.08;97442.91;5056083;28;19932;-70
2022/03/29 07:12:59;;;;;;;;;;;;;;;10.45;91.57;97447.56;5050938;28;20518;-71
2022/03/29 07:15:26;;;;;;;;;;;;;;;9.89;93.96;97443.44;5056408;28;19939;-72
2022/03/29 07:17:53;;;;;;;;;;;;;;;9.81;96.77;97444.75;5036914;28;19988;-72
2022/03/29 07:20:21;;;;;;;;;;;;;;;9.83;97.17;97444.50;5053032;28;19988;-71
2022/03/29 07:22:48;;;;;;;;;;;;;;;9.96;95.80;97444.75;5054005;28;20032;-71
2022/03/29 07:25:16;;;;;;;;;;;;;;;9.95;95.69;97442.34;5056386;28;19929;-71
2022/03/29 07:27:42;;;;;;;;;;;;;;;9.91;96.30;97441.28;5055952;28;20151;-71
2022/03/29 07:30:10;;;;;;;;;;;;;;;10.06;95.95;97444.72;5052894;28;20057;-72
2022/03/29 07:32:42;;;;;;;;;;;;;;;10.40;93.87;97441.47;5034595;28;19925;-72
2022/03/29 07:35:10;;;;;;;;;;;;;;;10.24;94.48;97438.03;5034846;28;19926;-71
2022/03/29 07:37:37;;;;;;;;;;;;;;;10.06;95.83;97433.25;5052399;28;19925;-71
2022/03/29 07:40:04;;;;;;;;;;;;;;;10.06;96.03;97433.25;5056046;28;20043;-71
2022/03/29 07:42:32;;;;;;;;;;;;;;;10.09;95.25;97430.03;5055752;28;20334;-69
2022/03/29 07:44:58;;;;;;;;;;;;;;;10.05;95.72;97434.31;5055949;28;19933;-70
2022/03/29 07:47:25;;;;;;;;;;;;;;;10.16;95.29;97427.91;5055860;28;19971;-70
2022/03/29 07:49:51;;;;;;;;;;;;;;;10.30;94.54;97439.63;5036390;28;19924;-70
2022/03/29 07:52:18;;;;;;;;;;;;;;;10.92;91.18;97430.25;5052456;28;19932;-71
2022/03/29 07:54:45;;;;;;;;;;;;;;;10.55;89.36;97417.38;5053480;28;20382;-71
2022/03/29 07:57:12;;;;;;;;;;;;;;;10.35;91.19;97420.91;5056472;28;19924;-71
2022/03/29 07:59:38;;;;;;;;;;;;;;;10.23;91.46;97429.22;5038560;28;20647;-71
2022/03/29 08:02:05;;;;;;;;;;;;;;;10.23;91.84;97425.75;5054557;28;19925;-70
2022/03/29 08:04:32;;;;;;;;;;;;;;;10.26;91.57;97423.34;5056380;28;19925;-71
2022/03/29 08:06:58;;;;;;;;;;;;;;;10.25;91.39;97427.09;5058515;28;19925;-71
2022/03/29 08:09:25;;;;;;;;;;;;;;;10.51;90.38;97425.13;5059715;28;19976;-71
2022/03/29 08:11:53;;;;;;;;;;;;;;;10.63;90.09;97416.78;5039926;28;20371;-71
2022/03/29 08:14:20;;;;;;;;;;;;;;;10.62;90.21;97413.31;5056044;28;19967;-71
2022/03/29 08:16:46;;;;;;;;;;;;;;;10.60;90.80;97412.78;5056731;28;20333;-70
2022/03/29 08:19:12;;;;;;;;;;;;;;;11.06;89.00;97415.19;5059347;28;19925;-70
2022/03/29 08:21:51;;;;;;;;;;;;;;;11.09;88.22;97411.97;5059270;28;20008;-70
2022/03/29 08:24:18;;;;;;;;;;;;;;;11.11;88.29;97401.81;5054401;28;19967;-70
2022/03/29 08:26:45;;;;;;;;;;;;;;;11.16;88.19;97405.25;5038260;28;19929;-70
2022/03/29 08:29:12;;;;;;;;;;;;;;;11.26;87.38;97399.78;5059582;28;19968;-72
2022/03/29 08:31:40;;;;;;;;;;;;;;;11.31;87.61;97390.94;5059441;28;19924;-70
2022/03/29 08:34:07;;;;;;;;;;;;;;;11.33;86.75;97388.78;5056128;28;20442;-72
2022/03/29 08:36:34;;;;;;;;;;;;;;;11.29;86.73;97390.44;5038318;28;19971;-72
2022/03/29 08:39:01;;;;;;;;;;;;;;;11.34;86.70;97385.84;5058594;28;19929;-71
2022/03/29 08:41:31;;;;;;;;;;;;;;;11.44;86.54;97384.97;5060115;28;19925;-70
2022/03/29 08:43:57;;;;;;;;;;;;;;;11.63;85.10;97385.06;5064529;28;19975;-73
2022/03/29 08:46:25;;;;;;;;;;;;;;;11.80;84.09;97388.13;5055707;28;19929;-71
2022/03/29 08:48:51;;;;;;;;;;;;;;;11.74;83.43;97382.03;5057013;28;20016;-69
2022/03/29 08:51:19;;;;;;;;;;;;;;;11.85;83.32;97374.72;5059044;28;19925;-71
2022/03/29 08:53:48;;;;;;;;;;;;;;;11.83;83.37;97374.97;5058511;28;19925;-71
2022/03/29 08:56:14;;;;;;;;;;;;;;;11.83;83.09;97376.84;5055454;28;19929;-71
2022/03/29 08:58:40;;;;;;;;;;;;;;;11.98;82.67;97375.88;5038102;28;19925;-72
2022/03/29 09:01:07;;;;;;;;;;;;;;;12.06;82.17;97364.56;5041760;28;19925;-72
2022/03/29 09:03:35;;;;;;;;;;;;;;;12.21;81.69;97372.41;5059589;28;20049;-71
2022/03/29 09:06:08;;;;;;;;;;;;;;;12.32;81.48;97357.81;5056722;28;19951;-77
2022/03/29 09:08:45;;;;;;;;;;;;;;;12.30;80.10;97355.44;5055327;28;19939;-71
2022/03/29 09:11:12;;;;;;;;;;;;;;;12.34;80.20;97347.63;5055201;28;20042;-72
2022/03/29 09:13:40;;;;;;;;;;;;;;;12.50;79.07;97346.34;5036744;28;20406;-71
2022/03/29 09:16:10;;;;;;;;;;;;;;;12.59;78.62;97341.13;5054758;28;19983;-71
2022/03/29 09:18:53;;;;;;;;;;;;;;;12.64;77.93;97343.72;5054838;28;19932;-70
2022/03/29 09:21:19;;;;;;;;;;;;;;;12.66;76.91;97342.34;5054903;28;19952;-70
2022/03/29 09:24:03;;;;;;;;;;;;;;;12.80;76.36;97332.53;5037951;28;20157;-71
2022/03/29 09:26:31;;;;;;;;;;;;;;;12.97;75.35;97326.63;5040305;28;19971;-70
2022/03/29 09:28:58;;;;;;;;;;;;;;;12.97;74.22;97330.09;5038173;28;19924;-71
2022/03/29 09:31:27;;;;;;;;;;;;;;;12.90;73.88;97320.84;5055112;28;19956;-71
2022/03/29 09:34:10;;;;;;;;;;;;;;;13.06;72.71;97319.50;5038449;28;19925;-71
2022/03/29 09:36:40;;;;;;;;;;;;;;;13.14;72.87;97318.88;5057996;28;19936;-73
2022/03/29 09:39:07;;;;;;;;;;;;;;;13.23;72.30;97322.47;5046449;28;19935;-72
2022/03/29 09:41:35;;;;;;;;;;;;;;;13.34;70.95;97309.69;5046084;28;20664;-70
2022/03/29 09:44:02;;;;;;;;;;;;;;;13.42;70.51;97306.34;5044343;28;19951;-71
2022/03/29 09:46:28;;;;;;;;;;;;;;;13.49;69.52;97312.13;5054785;28;19984;-73
2022/03/29 09:49:00;;;;;;;;;;;;;;;13.56;68.53;97301.78;5056716;28;20016;-73
2022/03/29 09:51:28;;;;;;;;;;;;;;;13.63;67.89;97301.38;5058697;28;20016;-72
2022/03/29 09:53:56;;;;;;;;;;;;;;;13.77;67.60;97305.66;5057161;28;19924;-74
2022/03/29 09:56:24;;;;;;;;;;;;;;;13.94;66.66;97299.72;5055694;28;19936;-73
2022/03/29 09:59:04;;;;;;;;;;;;;;;14.05;65.21;97301.88;5057333;28;19925;-72
2022/03/29 10:01:31;;;;;;;;;;;;;;;14.13;64.67;97300.41;5059204;28;19925;-76
2022/03/29 10:04:01;;;;;;;;;;;;;;;14.28;63.62;97288.53;5039398;28;19921;-72
2022/03/29 10:06:27;;;;;;;;;;;;;;;14.45;63.45;97291.44;5038206;28;20302;-72
2022/03/29 10:11:43;;;;;;;;;;;;;;;14.70;62.67;97280.06;5058093;28;19935;-72
2022/03/29 10:14:12;;;;;;;;;;;;;;;14.70;61.30;97282.75;5054483;28;19925;-72
2022/03/29 10:16:39;;;;;;;;;;;;;;;14.86;63.32;97275.94;5054315;28;19939;-71
2022/03/29 10:19:07;;;;;;;;;;;;;;;14.83;61.96;97273.06;5040347;28;19924;-70
2022/03/29 10:21:33;;;;;;;;;;;;;;;14.90;60.57;97268.84;5058363;28;19935;-70
2022/03/29 10:24:00;;;;;;;;;;;;;;;15.02;60.69;97261.03;5055571;28;20229;-74
2022/03/29 10:26:28;;;;;;;;;;;;;;;15.07;59.17;97252.81;5035890;28;19932;-72
2022/03/29 10:28:54;;;;;;;;;;;;;;;15.01;59.53;97254.06;5056215;28;19925;-72
2022/03/29 10:31:28;;;;;;;;;;;;;;;15.20;59.72;97243.09;5057668;28;19964;-72
2022/03/29 10:34:17;;;;;;;;;;;;;;;15.36;58.10;97244.28;5056110;28;19932;-72
2022/03/29 10:37:07;;;;;;;;;;;;;;;15.49;59.03;97235.34;5054858;28;19943;-72
2022/03/29 10:39:44;;;;;;;;;;;;;;;15.62;58.24;97244.44;5057501;28;19992;-72
2022/03/29 10:42:28;;;;;;;;;;;;;;;15.69;56.74;97227.84;5045663;28;19951;-73
2022/03/29 10:44:58;;;;;;;;;;;;;;;15.73;56.92;97220.69;5037882;28;19978;-72
2022/03/29 10:47:28;;;;;;;;;;;;;;;15.88;56.13;97221.06;5057334;28;20398;-73
2022/03/29 10:49:56;;;;;;;;;;;;;;;15.93;55.68;97215.53;5037573;28;19925;-72
2022/03/29 10:52:29;;;;;;;;;;;;;;;15.88;56.06;97218.38;5054016;28;19952;-73
2022/03/29 10:55:11;;;;;;;;;;;;;;;15.98;55.08;97204.63;5038250;28;19925;-72
2022/03/29 10:57:37;;;;;;;;;;;;;;;15.95;56.02;97207.94;5057001;28;20229;-72
2022/03/29 11:00:21;;;;;;;;;;;;;;;16.09;55.25;97200.50;5053972;28;19925;-73
2022/03/29 11:03:02;;;;;;;;;;;;;;;16.27;54.72;97195.13;5055477;28;19996;-72
2022/03/29 11:05:30;;;;;;;;;;;;;;;16.34;54.71;97190.84;5058110;28;19932;-74
2022/03/29 11:08:14;;;;;;;;;;;;;;;16.43;53.95;97183.56;5038069;28;19929;-73
2022/03/29 11:10:41;;;;;;;;;;;;;;;16.47;53.28;97181.00;5036525;28;19952;-73
2022/03/29 11:13:23;;;;;;;;;;;;;;;16.63;52.93;97174.06;5050501;28;19935;-74
2022/03/29 11:15:49;;;;;;;;;;;;;;;16.75;53.10;97160.72;5056167;28;19932;-73
2022/03/29 11:18:49;;;;;;;;;;;;;;;16.91;52.19;97171.78;5054051;28;19925;-73
2022/03/29 11:21:36;;;;;;;;;;;;;;;16.96;51.93;97163.53;5045776;28;19964;-73
2022/03/29 11:24:04;;;;;;;;;;;;;;;17.10;51.04;97159.53;5045431;28;19932;-73
2022/03/29 11:26:30;;;;;;;;;;;;;;;17.09;50.82;97160.63;5045322;28;19931;-72
2022/03/29 11:28:58;;;;;;;;;;;;;;;17.11;50.94;97158.38;5045506;28;20004;-73
2022/03/29 11:31:25;;;;;;;;;;;;;;;17.17;51.49;97154.44;5045475;28;19952;-72
2022/03/29 11:33:56;;;;;;;;;;;;;;;17.25;50.62;97145.50;5027896;28;19925;-72
2022/03/29 11:36:22;;;;;;;;;;;;;;;17.42;50.25;97154.63;5045824;28;19988;-72
2022/03/29 11:38:50;;;;;;;;;;;;;;;17.04;51.48;97149.22;5049520;28;19988;-72
2022/03/29 11:41:20;;;;;;;;;;;;;;;17.24;50.80;97143.91;5049611;28;19996;-72
2022/03/29 11:43:51;;;;;;;;;;;;;;;17.51;49.56;97137.28;5057977;28;20015;-72
2022/03/29 11:46:17;;;;;;;;;;;;;;;17.49;49.62;97128.69;5058557;28;19937;-72
2022/03/29 11:48:47;;;;;;;;;;;;;;;17.66;49.22;97127.84;5058627;28;20143;-72
2022/03/29 11:51:15;;;;;;;;;;;;;;;17.64;49.77;97119.28;5061719;28;20448;-71
2022/03/29 11:53:41;;;;;;;;;;;;;;;17.53;51.04;97112.63;5061798;28;19928;-72
2022/03/29 11:56:10;;;;;;;;;;;;;;;17.83;49.33;97105.31;5050151;28;19932;-73
2022/03/29 11:58:37;;;;;;;;;;;;;;;17.93;48.65;97111.13;5034458;28;20000;-72
2022/03/29 12:01:05;;;;;;;;;;;;;;;17.91;48.89;97105.28;5050580;28;19943;-73
2022/03/29 12:03:36;;;;;;;;;;;;;;;17.41;51.29;97096.34;5049877;28;19932;-74
2022/03/29 12:06:03;;;;;;;;;;;;;;;17.41;52.80;97096.34;5049269;28;19925;-73
2022/03/29 12:08:42;;;;;;;;;;;;;;;17.31;54.03;97094.03;5031248;28;19971;-74
2022/03/29 12:11:10;;;;;;;;;;;;;;;17.67;53.11;97091.63;5057399;28;20028;-76
2022/03/29 12:13:36;;;;;;;;;;;;;;;17.44;51.36;97082.22;5038984;28;19993;-73
2022/03/29 12:16:14;;;;;;;;;;;;;;;17.47;56.86;97079.66;5057406;28;20091;-74
2022/03/29 12:18:45;;;;;;;;;;;;;;;17.23;55.88;97076.78;5056827;28;20027;-72
2022/03/29 12:21:12;;;;;;;;;;;;;;;17.58;52.81;97066.56;5039084;28;19925;-73
2022/03/29 12:23:39;;;;;;;;;;;;;;;17.81;51.03;97062.44;5039239;28;19944;-73
2022/03/29 12:26:05;;;;;;;;;;;;;;;17.52;57.06;97051.66;5060068;28;20429;-73
2022/03/29 12:28:33;;;;;;;;;;;;;;;17.98;50.56;97029.09;5060146;28;19925;-73
2022/03/29 12:31:00;;;;;;;;;;;;;;;18.04;50.23;97036.66;5057605;28;20087;-74
2022/03/29 12:33:26;;;;;;;;;;;;;;;18.25;47.20;97042.84;5056848;28;19928;-73
2022/03/29 12:36:02;;;;;;;;;;;;;;;18.25;47.60;97034.72;5040283;28;19948;-72
2022/03/29 12:38:39;;;;;;;;;;;;;;;18.32;47.25;97029.53;5059757;28;19932;-73
2022/03/29 12:41:05;;;;;;;;;;;;;;;18.13;48.17;97023.09;5056712;28;19988;-73
2022/03/29 12:43:35;;;;;;;;;;;;;;;18.32;47.39;97026.84;5063537;28;20015;-73
2022/03/29 12:46:01;;;;;;;;;;;;;;;18.45;46.17;97018.75;5057210;28;20509;-73
2022/03/29 12:48:28;;;;;;;;;;;;;;;18.55;46.08;97018.38;5037407;28;20016;-74
2022/03/29 12:50:55;;;;;;;;;;;;;;;18.48;45.83;97007.28;5058451;28;19925;-74
2022/03/29 12:53:21;;;;;;;;;;;;;;;18.42;45.97;97001.31;5059688;28;19927;-73
2022/03/29 12:55:53;;;;;;;;;;;;;;;18.31;47.68;97006.38;5058588;28;19967;-73
2022/03/29 12:58:29;;;;;;;;;;;;;;;17.74;49.73;97006.25;5038465;28;19988;-73
2022/03/29 13:00:57;;;;;;;;;;;;;;;17.51;52.84;97009.59;5039865;28;19925;-73
2022/03/29 13:03:23;;;;;;;;;;;;;;;17.66;52.94;97001.75;5059180;28;20008;-73